Time;durP1;ratioP1;P1;durP2;ratioP2;P2;SDS_P1;SDS_P2;PMS_P1;PMS_P2;Temp;Humidity;BMP_temperature;BMP_pressure;BME280_temperature;BME280_humidity;BME280_pressure;Samples;Min_cycle;Max_cycle;Signal;HPM_P1;HPM_P2
2023/02/24 00:01:36;;;;;;;41.28;18.55;;;9.90;99.90;;;;;;4967591;28;20074;-76
2023/02/24 00:04:08;;;;;;;37.00;16.92;;;9.90;99.90;;;;;;4971758;28;20034;-75
2023/02/24 00:06:39;;;;;;;33.97;18.52;;;9.90;99.90;;;;;;4956201;29;20475;-73
2023/02/24 00:09:14;;;;;;;39.42;19.63;;;9.90;99.90;;;;;;4938651;28;20399;-75
2023/02/24 00:12:02;;;;;;;31.85;17.48;;;9.80;99.90;;;;;;4939014;29;20110;-74
2023/02/24 00:14:30;;;;;;;33.13;15.82;;;9.90;99.90;;;;;;4971048;28;20386;-73
2023/02/24 00:16:57;;;;;;;34.80;18.88;;;9.80;99.90;;;;;;4956788;28;20023;-73
2023/02/24 00:19:25;;;;;;;33.40;17.67;;;9.80;99.90;;;;;;4967401;28;20019;-73
2023/02/24 00:21:53;;;;;;;34.08;17.25;;;9.80;99.90;;;;;;4974406;28;20109;-73
2023/02/24 00:24:20;;;;;;;35.35;17.73;;;9.80;99.90;;;;;;4970385;28;20467;-71
2023/02/24 00:26:47;;;;;;;30.60;16.23;;;9.80;99.90;;;;;;4965148;28;20031;-74
2023/02/24 00:29:13;;;;;;;35.97;17.98;;;9.70;99.90;;;;;;4954582;28;20027;-75
2023/02/24 00:31:41;;;;;;;33.88;16.75;;;9.70;99.90;;;;;;4940814;28;20504;-75
2023/02/24 00:34:11;;;;;;;33.17;12.90;;;9.60;99.90;;;;;;4973263;28;20034;-73
2023/02/24 00:36:37;;;;;;;26.83;14.13;;;9.60;99.90;;;;;;4956622;28;20070;-74
2023/02/24 00:39:08;;;;;;;22.83;11.70;;;9.50;99.90;;;;;;4973435;28;20027;-75
2023/02/24 00:41:39;;;;;;;25.83;12.82;;;9.50;99.90;;;;;;4960053;28;20041;-75
2023/02/24 00:44:08;;;;;;;27.17;14.57;;;9.50;99.90;;;;;;4972638;28;20027;-75
2023/02/24 00:46:39;;;;;;;33.78;15.60;;;9.50;99.90;;;;;;4940007;28;20035;-75
2023/02/24 00:49:09;;;;;;;29.92;13.90;;;9.50;99.90;;;;;;4954666;28;20023;-74
2023/02/24 00:51:38;;;;;;;27.42;13.48;;;9.50;99.90;;;;;;4956018;28;20054;-74
2023/02/24 00:54:04;;;;;;;25.70;11.88;;;9.50;99.90;;;;;;4962388;28;20521;-71
2023/02/24 00:56:31;;;;;;;20.90;10.95;;;9.40;99.90;;;;;;4940351;28;20356;-72
2023/02/24 00:58:58;;;;;;;21.00;9.05;;;9.40;99.90;;;;;;4974199;28;20118;-73
2023/02/24 01:01:32;;;;;;;16.80;7.50;;;9.30;99.90;;;;;;4958688;28;20450;-74
2023/02/24 01:03:59;;;;;;;16.70;6.97;;;9.30;99.90;;;;;;4957034;28;20023;-75
2023/02/24 01:06:28;;;;;;;14.18;7.45;;;9.20;99.90;;;;;;4955066;28;20039;-75
2023/02/24 01:08:59;;;;;;;16.42;7.47;;;9.00;99.90;;;;;;4954957;29;20024;-74
2023/02/24 01:14:20;;;;;;;21.23;8.35;;;8.90;99.90;;;;;;4957246;28;20031;-71
2023/02/24 01:16:49;;;;;;;18.30;7.80;;;8.80;99.90;;;;;;4942406;28;20035;-74
2023/02/24 01:19:20;;;;;;;16.33;7.32;;;8.80;99.90;;;;;;4958023;28;20063;-73
2023/02/24 01:21:50;;;;;;;11.95;5.97;;;8.70;99.90;;;;;;4933447;28;20089;-74
2023/02/24 01:24:19;;;;;;;15.02;7.30;;;8.60;99.90;;;;;;4954429;28;20038;-74
2023/02/24 01:26:44;;;;;;;13.05;5.63;;;8.60;99.90;;;;;;4937957;29;20388;-74
2023/02/24 01:29:10;;;;;;;19.08;6.72;;;8.60;99.90;;;;;;4938784;28;20041;-72
2023/02/24 01:31:37;;;;;;;18.42;6.70;;;8.50;99.90;;;;;;4955999;28;20042;-75
2023/02/24 01:34:04;;;;;;;11.38;4.78;;;8.40;99.90;;;;;;4974315;28;20536;-74
2023/02/24 01:36:32;;;;;;;15.07;5.97;;;8.30;99.90;;;;;;4961279;28;20039;-75
2023/02/24 01:38:59;;;;;;;13.77;5.63;;;8.20;99.90;;;;;;4973615;28;20018;-76
2023/02/24 01:41:26;;;;;;;14.98;4.72;;;8.20;99.90;;;;;;4956295;28;20535;-74
2023/02/24 01:44:21;;;;;;;22.27;6.72;;;8.20;99.90;;;;;;4963052;28;20080;-70
2023/02/24 01:46:55;;;;;;;10.38;4.20;;;8.10;99.90;;;;;;4972493;28;20046;-74
2023/02/24 01:49:38;;;;;;;14.35;5.65;;;8.10;99.80;;;;;;4971807;28;20029;-73
2023/02/24 01:52:29;;;;;;;13.30;4.95;;;7.90;99.70;;;;;;4941668;29;20035;-73
2023/02/24 01:55:18;;;;;;;15.90;5.07;;;7.80;99.40;;;;;;4936974;28;20122;-73
2023/02/24 01:57:45;;;;;;;16.73;6.10;;;7.70;99.70;;;;;;4954236;29;20035;-74
2023/02/24 02:00:29;;;;;;;20.45;5.32;;;7.80;99.80;;;;;;4960161;28;20518;-76
2023/02/24 02:03:00;;;;;;;16.35;5.63;;;7.80;99.80;;;;;;4964853;28;20042;-74
2023/02/24 02:05:26;;;;;;;17.45;5.05;;;7.70;99.50;;;;;;4964530;28;20436;-72
2023/02/24 02:07:53;;;;;;;15.80;5.18;;;7.60;99.60;;;;;;4953765;29;20225;-75
2023/02/24 02:10:19;;;;;;;13.63;5.13;;;7.60;99.60;;;;;;4960515;28;20086;-74
2023/02/24 02:12:45;;;;;;;23.05;5.88;;;7.70;99.80;;;;;;4940086;28;20062;-71
2023/02/24 02:15:14;;;;;;;16.27;4.13;;;7.70;99.80;;;;;;4954339;28;20066;-74
2023/02/24 02:18:03;;;;;;;22.95;6.00;;;7.70;99.70;;;;;;4954899;28;20089;-74
2023/02/24 02:20:41;;;;;;;13.43;4.85;;;7.60;99.50;;;;;;4961033;28;20031;-73
2023/02/24 02:23:17;;;;;;;19.80;4.50;;;7.50;99.20;;;;;;4936886;28;20098;-74
2023/02/24 02:26:04;;;;;;;13.35;4.40;;;7.50;99.20;;;;;;4957419;28;20030;-73
2023/02/24 02:29:05;;;;;;;15.93;3.50;;;7.40;99.20;;;;;;4937928;28;20060;-74
2023/02/24 02:31:49;;;;;;;15.23;4.30;;;7.50;99.20;;;;;;4955431;28;20035;-76
2023/02/24 02:34:35;;;;;;;9.52;3.30;;;7.40;99.00;;;;;;4955130;28;20066;-76
2023/02/24 02:37:10;;;;;;;12.90;4.82;;;7.40;99.10;;;;;;4937320;29;20063;-74
2023/02/24 02:40:14;;;;;;;13.98;3.22;;;7.40;98.90;;;;;;4953235;28;20039;-73
2023/02/24 02:43:03;;;;;;;9.55;3.53;;;7.40;98.90;;;;;;4952379;29;20032;-73
2023/02/24 02:45:38;;;;;;;12.75;3.88;;;7.30;98.40;;;;;;4962615;28;20067;-73
2023/02/24 02:48:15;;;;;;;10.00;3.90;;;7.10;98.50;;;;;;4971619;28;20042;-71
2023/02/24 02:51:03;;;;;;;15.80;4.28;;;7.10;98.40;;;;;;4954361;28;20031;-73
2023/02/24 02:54:00;;;;;;;10.55;4.38;;;7.00;97.90;;;;;;4966907;28;20054;-74
2023/02/24 02:57:04;;;;;;;10.77;3.10;;;6.90;98.20;;;;;;4955693;28;20035;-74
2023/02/24 02:59:33;;;;;;;5.45;2.67;;;6.90;98.20;;;;;;4951572;28;20047;-73
2023/02/24 03:02:13;;;;;;;8.90;3.13;;;6.90;98.30;;;;;;4966913;28;20486;-73
2023/02/24 03:04:51;;;;;;;12.45;3.80;;;7.00;98.30;;;;;;4959845;28;20031;-73
2023/02/24 03:07:18;;;;;;;9.73;2.80;;;7.00;98.20;;;;;;4953381;28;20097;-72
2023/02/24 03:09:55;;;;;;;10.77;3.53;;;6.90;98.00;;;;;;4960183;28;20034;-75
2023/02/24 03:12:25;;;;;;;7.63;2.78;;;6.80;97.10;;;;;;4953509;29;20023;-73
2023/02/24 03:14:59;;;;;;;12.07;2.60;;;6.70;97.10;;;;;;4939486;28;20031;-74
2023/02/24 03:17:32;;;;;;;9.02;3.05;;;6.70;97.30;;;;;;4967659;28;20042;-75
2023/02/24 03:20:12;;;;;;;8.43;2.30;;;6.60;97.00;;;;;;4961945;28;20391;-74
2023/02/24 03:23:06;;;;;;;10.32;3.03;;;6.60;97.20;;;;;;4946083;28;20027;-75
2023/02/24 03:25:59;;;;;;;8.82;3.05;;;6.60;97.30;;;;;;4959746;28;20039;-77
2023/02/24 03:28:39;;;;;;;9.77;2.53;;;6.60;97.20;;;;;;4972551;28;20027;-76
2023/02/24 03:31:39;;;;;;;15.30;3.35;;;6.60;97.30;;;;;;4956180;28;20356;-75
2023/02/24 03:34:22;;;;;;;8.00;2.85;;;6.70;97.30;;;;;;4929130;29;20042;-76
2023/02/24 03:36:51;;;;;;;8.43;3.10;;;6.70;97.30;;;;;;4938282;28;20027;-77
2023/02/24 03:39:17;;;;;;;10.63;2.72;;;6.70;97.30;;;;;;4956645;28;20043;-74
2023/02/24 03:41:59;;;;;;;14.63;5.97;;;6.70;97.30;;;;;;4956181;28;20051;-74
2023/02/24 03:44:27;;;;;;;10.38;3.95;;;6.70;97.20;;;;;;4963693;28;20069;-74
2023/02/24 03:46:54;;;;;;;7.85;2.97;;;6.70;97.20;;;;;;4962165;28;20062;-73
2023/02/24 03:49:21;;;;;;;9.90;3.35;;;6.70;97.30;;;;;;4958120;28;20081;-75
2023/02/24 03:51:58;;;;;;;11.00;3.42;;;6.80;97.30;;;;;;4966599;28;20050;-73
2023/02/24 03:54:51;;;;;;;11.88;3.17;;;6.80;97.30;;;;;;4966724;28;20043;-73
2023/02/24 03:57:53;;;;;;;11.27;3.17;;;6.80;97.20;;;;;;4957494;28;20085;-75
2023/02/24 04:00:28;;;;;;;7.32;2.50;;;6.80;97.20;;;;;;4963474;28;20046;-75
2023/02/24 04:03:11;;;;;;;10.38;3.40;;;6.80;97.20;;;;;;4976027;28;20121;-75
2023/02/24 04:05:53;;;;;;;10.27;3.58;;;6.90;97.20;;;;;;4943574;29;20086;-75
2023/02/24 04:08:22;;;;;;;12.55;3.75;;;6.90;97.20;;;;;;4963740;28;20035;-77
2023/02/24 04:11:04;;;;;;;11.73;3.50;;;6.90;97.20;;;;;;4954640;28;20158;-76
2023/02/24 04:13:42;;;;;;;6.53;2.47;;;6.90;97.20;;;;;;4975225;28;20356;-75
2023/02/24 04:16:28;;;;;;;11.90;3.28;;;6.90;97.20;;;;;;4939135;28;20117;-75
2023/02/24 04:19:05;;;;;;;11.48;4.70;;;6.90;97.10;;;;;;4971911;28;20039;-75
2023/02/24 04:21:33;;;;;;;11.45;4.25;;;6.90;97.00;;;;;;4944748;28;20055;-74
2023/02/24 04:24:05;;;;;;;10.35;3.90;;;6.90;97.00;;;;;;4943328;28;20126;-75
2023/02/24 04:26:31;;;;;;;12.40;3.83;;;6.90;97.10;;;;;;4956970;28;20061;-76
2023/02/24 04:28:57;;;;;;;11.60;2.83;;;6.90;97.00;;;;;;4969496;28;20513;-75
2023/02/24 04:31:26;;;;;;;12.23;3.65;;;6.90;96.90;;;;;;4958507;28;20077;-76
2023/02/24 04:33:52;;;;;;;13.43;3.30;;;6.90;96.90;;;;;;4973154;28;20038;-76
2023/02/24 04:36:19;;;;;;;10.07;3.65;;;7.00;96.90;;;;;;4969096;28;20041;-76
2023/02/24 04:38:46;;;;;;;8.07;3.08;;;6.90;96.90;;;;;;4973740;28;20468;-76
2023/02/24 04:41:19;;;;;;;9.50;3.63;;;7.00;96.90;;;;;;4938022;28;20039;-76
2023/02/24 04:43:52;;;;;;;6.47;3.42;;;7.00;96.80;;;;;;4955371;28;20451;-75
2023/02/24 04:46:18;;;;;;;9.57;3.28;;;7.00;96.80;;;;;;4960706;28;20440;-75
2023/02/24 04:48:44;;;;;;;10.93;4.10;;;7.00;96.70;;;;;;4955927;28;20019;-76
2023/02/24 04:51:10;;;;;;;10.25;3.05;;;7.00;96.80;;;;;;4962371;28;20399;-75
2023/02/24 04:53:36;;;;;;;7.00;3.45;;;6.90;96.70;;;;;;4970796;28;20047;-75
2023/02/24 04:56:07;;;;;;;12.00;4.60;;;7.00;96.80;;;;;;4956209;28;20498;-75
2023/02/24 04:58:37;;;;;;;7.78;3.78;;;7.00;96.50;;;;;;4954751;28;20081;-77
2023/02/24 05:01:09;;;;;;;10.82;3.50;;;6.90;96.60;;;;;;4953517;28;20478;-78
2023/02/24 05:03:35;;;;;;;9.77;3.33;;;7.00;96.60;;;;;;4974322;28;20058;-78
2023/02/24 05:06:01;;;;;;;11.80;4.25;;;7.00;96.60;;;;;;4969739;28;20027;-76
2023/02/24 05:08:29;;;;;;;11.30;3.58;;;7.00;96.50;;;;;;4957286;28;20034;-77
2023/02/24 05:11:02;;;;;;;7.72;3.05;;;7.00;96.50;;;;;;4941023;28;20126;-77
2023/02/24 05:13:36;;;;;;;6.47;2.80;;;7.00;96.50;;;;;;4955239;28;20042;-75
2023/02/24 05:16:07;;;;;;;7.70;2.93;;;7.00;96.50;;;;;;4956344;28;20039;-73
2023/02/24 05:18:36;;;;;;;6.78;2.95;;;7.00;96.40;;;;;;4956497;28;20035;-75
2023/02/24 05:24:05;;;;;;;6.47;3.33;;;7.00;96.40;;;;;;4961296;28;20027;-75
2023/02/24 05:26:32;;;;;;;14.02;3.20;;;6.90;96.30;;;;;;4956596;28;20078;-76
2023/02/24 05:29:00;;;;;;;4.78;1.83;;;6.90;96.30;;;;;;4944738;28;20023;-76
2023/02/24 05:31:28;;;;;;;4.15;2.13;;;6.90;96.30;;;;;;4959374;28;20114;-75
2023/02/24 05:34:06;;;;;;;9.68;2.67;;;6.90;96.20;;;;;;4953254;29;20114;-75
2023/02/24 05:36:39;;;;;;;5.57;2.42;;;6.90;96.20;;;;;;4962769;28;20117;-76
2023/02/24 05:39:06;;;;;;;6.05;1.92;;;6.90;96.10;;;;;;4972664;28;20479;-75
2023/02/24 05:41:37;;;;;;;7.82;2.55;;;6.90;96.10;;;;;;4954160;29;20047;-74
2023/02/24 05:44:12;;;;;;;9.85;3.05;;;7.00;96.20;;;;;;4965807;28;20037;-75
2023/02/24 05:46:43;;;;;;;9.00;2.72;;;6.90;96.20;;;;;;4967738;28;20438;-75
2023/02/24 05:49:22;;;;;;;6.35;2.53;;;7.00;96.10;;;;;;4955830;28;20058;-77
2023/02/24 05:51:54;;;;;;;9.20;2.20;;;6.90;96.10;;;;;;4968180;28;20031;-74
2023/02/24 05:54:27;;;;;;;6.70;2.15;;;6.90;96.20;;;;;;4969758;28;20042;-76
2023/02/24 05:56:55;;;;;;;7.63;2.47;;;6.90;96.10;;;;;;4966737;28;20027;-74
2023/02/24 05:59:21;;;;;;;6.90;2.53;;;7.00;96.10;;;;;;4937301;29;20102;-77
2023/02/24 06:01:52;;;;;;;6.10;2.00;;;6.90;96.00;;;;;;4965599;28;20038;-76
2023/02/24 06:04:38;;;;;;;8.30;2.35;;;6.90;96.00;;;;;;4940954;28;20538;-77
2023/02/24 06:07:21;;;;;;;6.43;2.30;;;6.90;95.90;;;;;;4934426;28;20031;-76
2023/02/24 06:09:49;;;;;;;5.22;2.25;;;6.90;96.00;;;;;;4973950;28;20190;-77
2023/02/24 06:12:16;;;;;;;8.95;2.10;;;6.90;96.00;;;;;;4965501;28;20368;-77
2023/02/24 06:14:43;;;;;;;6.18;2.08;;;6.90;95.90;;;;;;4964050;28;20047;-75
2023/02/24 06:17:09;;;;;;;9.13;2.17;;;6.90;95.90;;;;;;4953407;28;20054;-76
2023/02/24 06:19:36;;;;;;;4.90;1.98;;;6.90;95.90;;;;;;4967610;28;20065;-77
2023/02/24 06:22:09;;;;;;;8.45;2.45;;;6.90;95.80;;;;;;4953755;28;20098;-77
2023/02/24 06:24:35;;;;;;;9.50;2.00;;;6.90;95.90;;;;;;4954269;29;20034;-74
2023/02/24 06:27:08;;;;;;;5.82;2.45;;;6.90;95.90;;;;;;4958664;28;20027;-77
2023/02/24 06:29:38;;;;;;;4.10;1.85;;;6.90;95.80;;;;;;4956046;28;20035;-76
2023/02/24 06:32:07;;;;;;;3.95;2.03;;;7.00;95.80;;;;;;4961970;28;20070;-77
2023/02/24 06:34:37;;;;;;;8.68;3.00;;;7.00;96.10;;;;;;4962172;28;20122;-77
2023/02/24 06:37:03;;;;;;;8.95;2.30;;;7.00;95.80;;;;;;4953403;28;20041;-76
2023/02/24 06:39:36;;;;;;;8.90;2.67;;;7.00;95.90;;;;;;4964858;28;20035;-76
2023/02/24 06:42:03;;;;;;;6.88;2.40;;;7.00;95.80;;;;;;4954193;28;20621;-77
2023/02/24 06:44:35;;;;;;;6.68;2.60;;;7.00;95.80;;;;;;4945657;28;20114;-76
2023/02/24 06:47:01;;;;;;;4.45;2.10;;;7.00;95.90;;;;;;4954856;28;20483;-76
2023/02/24 06:49:27;;;;;;;7.07;3.15;;;7.00;95.80;;;;;;4975176;28;20022;-78
2023/02/24 06:51:54;;;;;;;7.93;2.72;;;7.00;95.80;;;;;;4955431;28;20035;-78
2023/02/24 06:54:21;;;;;;;7.43;2.65;;;7.00;95.80;;;;;;4977889;28;20406;-77
2023/02/24 06:56:48;;;;;;;10.50;2.53;;;7.00;95.80;;;;;;4958256;28;20035;-77
2023/02/24 06:59:20;;;;;;;7.55;2.35;;;7.10;95.70;;;;;;4953985;28;20054;-78
2023/02/24 07:01:46;;;;;;;6.35;1.80;;;7.10;95.70;;;;;;4951809;28;20113;-73
2023/02/24 07:06:41;;;;;;;5.72;1.95;;;7.10;95.80;;;;;;4957840;28;20118;-72
2023/02/24 07:09:09;;;;;;;9.80;2.53;;;7.10;95.50;;;;;;4962717;28;20027;-70
2023/02/24 07:11:37;;;;;;;9.27;2.70;;;7.20;95.50;;;;;;4956998;28;20118;-72
2023/02/24 07:14:06;;;;;;;4.57;1.95;;;7.20;95.40;;;;;;4949958;28;20047;-69
2023/02/24 07:16:34;;;;;;;6.78;2.03;;;7.20;95.30;;;;;;4966498;28;20609;-69
2023/02/24 07:19:09;;;;;;;9.60;2.45;;;7.20;95.20;;;;;;4964410;28;20038;-69
2023/02/24 07:21:42;;;;;;;5.68;2.88;;;7.20;95.10;;;;;;4969145;28;20054;-69
2023/02/24 07:24:12;;;;;;;7.65;2.50;;;7.20;95.10;;;;;;4964653;28;20513;-69
2023/02/24 07:26:41;;;;;;;6.32;1.90;;;7.20;95.10;;;;;;4971816;28;20034;-69
2023/02/24 07:29:10;;;;;;;4.35;2.08;;;7.20;95.00;;;;;;4970532;28;20033;-69
2023/02/24 07:31:36;;;;;;;8.80;2.35;;;7.20;94.80;;;;;;4970581;28;20023;-69
2023/02/24 07:34:03;;;;;;;5.78;2.65;;;7.20;94.30;;;;;;4956885;28;20042;-70
2023/02/24 07:36:29;;;;;;;8.57;3.03;;;7.10;94.60;;;;;;4958451;28;20106;-69
2023/02/24 07:38:57;;;;;;;11.70;3.53;;;7.10;94.50;;;;;;4961616;28;20031;-69
2023/02/24 07:41:25;;;;;;;6.63;2.58;;;7.10;94.30;;;;;;4961746;28;20049;-69
2023/02/24 07:43:53;;;;;;;8.85;1.98;;;7.10;94.10;;;;;;4970953;28;20033;-69
2023/02/24 07:46:24;;;;;;;4.03;2.10;;;7.10;94.10;;;;;;4967615;28;20098;-68
2023/02/24 07:48:51;;;;;;;8.77;2.47;;;7.10;94.00;;;;;;4963839;28;20033;-69
2023/02/24 07:51:19;;;;;;;7.13;2.13;;;7.10;93.90;;;;;;4966002;28;20035;-69
2023/02/24 07:53:58;;;;;;;7.10;2.05;;;7.00;93.50;;;;;;4951481;28;20051;-70
2023/02/24 07:56:26;;;;;;;14.55;3.33;;;7.10;93.50;;;;;;4950078;29;20031;-69
2023/02/24 07:58:58;;;;;;;7.32;2.00;;;7.00;93.20;;;;;;4968929;28;20443;-69
2023/02/24 08:01:27;;;;;;;8.82;2.75;;;7.00;93.40;;;;;;4936137;28;20114;-69
2023/02/24 08:03:55;;;;;;;5.10;2.92;;;7.00;93.40;;;;;;4945810;28;20035;-69
2023/02/24 08:06:36;;;;;;;5.40;2.05;;;7.10;93.40;;;;;;4945973;28;20480;-69
2023/02/24 08:09:19;;;;;;;6.95;2.85;;;7.10;93.40;;;;;;4941438;28;20321;-69
2023/02/24 08:11:56;;;;;;;8.98;2.55;;;7.20;93.50;;;;;;4942968;28;20032;-69
2023/02/24 08:14:24;;;;;;;5.38;2.08;;;7.20;93.50;;;;;;4938258;28;20027;-69
2023/02/24 08:16:58;;;;;;;5.20;2.20;;;7.30;93.50;;;;;;4950964;28;20162;-68
2023/02/24 08:19:31;;;;;;;3.58;1.80;;;7.30;93.30;;;;;;4943203;28;20063;-68
2023/02/24 08:22:18;;;;;;;9.45;2.70;;;7.30;93.20;;;;;;4942738;29;20166;-68
2023/02/24 08:24:44;;;;;;;6.47;2.10;;;7.30;93.20;;;;;;4936702;28;20435;-67
2023/02/24 08:27:10;;;;;;;8.63;2.38;;;7.40;93.30;;;;;;4948654;29;20458;-69
2023/02/24 08:29:56;;;;;;;7.22;2.22;;;7.40;93.30;;;;;;4953207;28;20043;-67
2023/02/24 08:32:35;;;;;;;5.65;2.05;;;7.40;93.10;;;;;;4948350;28;20031;-67
2023/02/24 08:35:13;;;;;;;7.18;2.30;;;7.40;93.10;;;;;;4936452;28;20070;-67
2023/02/24 08:37:46;;;;;;;6.97;3.03;;;7.50;93.10;;;;;;4936796;29;20028;-68
2023/02/24 08:43:29;;;;;;;6.10;2.50;;;7.60;93.30;;;;;;4941315;28;20039;-69
2023/02/24 08:46:16;;;;;;;7.07;1.95;;;7.60;93.20;;;;;;4949969;28;20066;-70
2023/02/24 08:48:54;;;;;;;6.75;2.47;;;7.70;93.10;;;;;;4938095;29;20039;-67
2023/02/24 08:51:28;;;;;;;6.53;2.40;;;7.70;93.10;;;;;;4950368;28;20050;-69
2023/02/24 08:53:56;;;;;;;6.57;2.55;;;7.80;93.00;;;;;;4966893;28;20098;-69
2023/02/24 08:56:26;;;;;;;6.60;2.58;;;7.90;93.10;;;;;;4959241;28;20040;-68
2023/02/24 08:58:57;;;;;;;9.63;2.58;;;7.80;92.90;;;;;;4965628;28;20392;-69
2023/02/24 09:01:33;;;;;;;7.53;3.13;;;7.90;92.80;;;;;;4960812;28;20039;-68
2023/02/24 09:04:00;;;;;;;4.50;2.25;;;8.00;92.70;;;;;;4956193;28;20027;-68
2023/02/24 09:06:38;;;;;;;9.70;2.80;;;8.00;92.70;;;;;;4954553;28;20454;-67
2023/02/24 09:09:16;;;;;;;7.80;2.78;;;8.10;92.70;;;;;;4963969;28;20129;-67
2023/02/24 09:12:04;;;;;;;6.53;2.55;;;8.20;92.70;;;;;;4971828;28;20041;-69
2023/02/24 09:14:35;;;;;;;10.98;3.92;;;8.20;92.70;;;;;;4955263;28;20046;-67
2023/02/24 09:17:01;;;;;;;5.97;2.85;;;8.20;92.60;;;;;;4964671;28;20482;-68
2023/02/24 09:22:31;;;;;;;8.88;3.35;;;8.30;92.60;;;;;;4963202;28;20077;-67
2023/02/24 09:25:17;;;;;;;7.50;2.90;;;8.40;92.50;;;;;;4959272;28;20031;-68
2023/02/24 09:28:15;;;;;;;6.20;3.05;;;8.40;92.40;;;;;;4956169;28;20096;-69
2023/02/24 09:30:52;;;;;;;6.93;2.60;;;8.40;92.30;;;;;;4959946;28;20037;-68
2023/02/24 09:33:27;;;;;;;11.43;2.83;;;8.40;92.20;;;;;;4955249;28;20110;-68
2023/02/24 09:36:01;;;;;;;7.55;3.13;;;8.40;92.20;;;;;;4962159;28;20076;-68
2023/02/24 09:44:35;;;;;;;6.85;2.20;;;8.30;91.90;;;;;;4953829;28;20035;-69
2023/02/24 09:50:18;;;;;;;10.10;2.97;;;8.30;92.00;;;;;;4970789;28;20125;-69
2023/02/24 09:52:45;;;;;;;5.68;2.45;;;8.30;91.90;;;;;;4964589;28;20046;-67
2023/02/24 09:55:34;;;;;;;7.07;2.42;;;8.30;91.90;;;;;;4958873;28;20166;-68
2023/02/24 09:58:28;;;;;;;4.63;2.15;;;8.40;91.90;;;;;;4957194;28;20035;-68
2023/02/24 10:01:20;;;;;;;7.30;2.33;;;8.40;91.90;;;;;;4960147;28;20132;-68
2023/02/24 10:04:10;;;;;;;7.32;2.53;;;8.40;91.70;;;;;;4958425;28;20046;-67
2023/02/24 10:07:14;;;;;;;4.85;2.03;;;8.50;91.70;;;;;;4954172;28;20058;-67
2023/02/24 10:09:47;;;;;;;4.18;2.15;;;8.50;91.60;;;;;;4921406;28;20075;-69
2023/02/24 10:12:22;;;;;;;4.63;1.73;;;8.50;91.60;;;;;;4953940;28;20042;-69
2023/02/24 10:15:18;;;;;;;7.45;2.35;;;8.60;91.60;;;;;;4966451;28;20034;-68
2023/02/24 10:17:54;;;;;;;9.45;2.38;;;8.60;91.50;;;;;;4968815;28;20037;-67
2023/02/24 10:20:38;;;;;;;5.18;2.80;;;8.60;91.40;;;;;;4953563;28;20031;-68
2023/02/24 10:23:28;;;;;;;5.05;2.25;;;8.60;91.30;;;;;;4942719;28;20057;-68
2023/02/24 10:26:43;;;;;;;5.60;2.03;;;8.60;91.30;;;;;;4951674;28;20039;-68
2023/02/24 10:29:28;;;;;;;3.83;2.13;;;8.70;91.20;;;;;;4927340;28;20039;-68
2023/02/24 10:32:15;;;;;;;5.85;2.75;;;8.70;91.10;;;;;;4960336;28;20027;-68
2023/02/24 10:34:43;;;;;;;3.63;2.15;;;8.70;91.20;;;;;;4939089;28;20035;-68
2023/02/24 10:37:18;;;;;;;6.40;2.22;;;8.80;91.40;;;;;;4971769;28;20027;-68
2023/02/24 10:39:48;;;;;;;7.97;2.60;;;8.80;91.00;;;;;;4953061;28;20031;-69
2023/02/24 10:42:23;;;;;;;4.43;2.00;;;8.80;91.00;;;;;;4964061;28;20049;-68
2023/02/24 10:44:52;;;;;;;;;;;8.80;90.90;;;;;;4948347;28;20034;-68
2023/02/24 10:47:55;;;;;;;3.50;1.80;;;8.80;90.90;;;;;;4967167;28;19910;-68
2023/02/24 10:50:23;;;;;;;5.38;2.13;;;8.80;90.90;;;;;;4948446;28;20039;-69
2023/02/24 10:58:43;;;;;;;5.10;2.10;;;8.90;91.00;;;;;;4953322;28;20035;-67
2023/02/24 11:01:19;;;;;;;6.75;2.08;;;8.80;90.80;;;;;;4923646;28;20046;-67
2023/02/24 11:04:00;;;;;;;5.43;2.08;;;8.80;90.90;;;;;;4964169;28;20623;-68
2023/02/24 11:17:34;;;;;;;5.18;2.28;;;8.50;91.70;;;;;;4969892;28;20473;-67
2023/02/24 11:20:11;;;;;;;7.22;2.58;;;8.50;91.90;;;;;;4960090;28;20309;-67
2023/02/24 11:22:40;;;;;;;3.75;2.00;;;8.50;92.10;;;;;;4960896;28;20455;-67
2023/02/24 11:25:17;;;;;;;12.55;3.22;;;8.40;92.30;;;;;;4965070;28;20771;-67
2023/02/24 11:27:45;;;;;;;4.85;2.47;;;8.40;92.40;;;;;;4947109;28;20150;-67
2023/02/24 11:30:37;;;;;;;4.63;1.95;;;8.30;92.60;;;;;;4949131;28;20034;-67
2023/02/24 11:33:16;;;;;;;5.88;2.10;;;8.30;92.70;;;;;;4966127;28;20074;-68
2023/02/24 11:36:01;;;;;;;5.90;2.08;;;8.30;93.10;;;;;;4955927;28;20023;-67
2023/02/24 11:38:35;;;;;;;;;;;8.20;93.20;;;;;;4964608;28;20376;-67
2023/02/24 11:41:24;;;;;;;7.93;2.45;;;8.10;93.00;;;;;;4968329;28;19922;-67
2023/02/24 11:44:21;;;;;;;4.35;1.95;;;8.00;93.30;;;;;;4970804;28;20383;-67
2023/02/24 11:46:57;;;;;;;4.38;2.33;;;7.90;93.50;;;;;;4944760;28;20069;-67
2023/02/24 11:49:36;;;;;;;5.38;2.28;;;7.80;93.80;;;;;;4965469;28;20106;-67
2023/02/24 11:52:05;;;;;;;5.07;2.08;;;7.80;94.00;;;;;;4975470;28;20344;-68
2023/02/24 11:54:46;;;;;;;4.65;2.65;;;7.70;94.20;;;;;;4964963;28;20078;-66
2023/02/24 11:57:18;;;;;;;6.70;2.08;;;7.70;94.40;;;;;;4961065;28;20058;-68
2023/02/24 11:59:57;;;;;;;5.18;1.95;;;7.70;94.50;;;;;;4964544;28;20509;-66
2023/02/24 12:02:37;;;;;;;5.45;2.28;;;7.60;94.70;;;;;;4960728;28;20054;-67
2023/02/24 12:05:11;;;;;;;7.72;3.22;;;7.60;94.80;;;;;;4957556;28;20157;-67
2023/02/24 12:07:42;;;;;;;6.55;2.53;;;7.60;94.90;;;;;;4965634;28;20033;-67
2023/02/24 12:10:19;;;;;;;7.60;2.97;;;7.60;95.00;;;;;;4957580;28;20035;-67
2023/02/24 12:13:10;;;;;;;6.70;2.50;;;7.50;95.30;;;;;;4955827;28;20034;-68
2023/02/24 12:16:01;;;;;;;7.25;1.92;;;7.50;95.20;;;;;;4962936;28;20039;-68
2023/02/24 12:18:36;;;;;;;5.05;1.92;;;7.50;95.20;;;;;;4945734;28;20030;-67
2023/02/24 12:21:18;;;;;;;3.42;1.88;;;7.40;95.20;;;;;;4964960;28;20194;-67
2023/02/24 12:23:47;;;;;;;6.03;1.70;;;7.40;95.30;;;;;;4968108;28;20486;-68
2023/02/24 12:26:22;;;;;;;7.05;3.00;;;7.40;95.30;;;;;;4956714;28;20042;-67
2023/02/24 12:28:56;;;;;;;;;;;7.40;95.50;;;;;;4966347;28;20027;-67
2023/02/24 12:31:33;;;;;;;4.22;2.03;;;7.40;95.30;;;;;;4959824;28;20128;-67
2023/02/24 12:34:15;;;;;;;5.32;1.92;;;7.40;95.50;;;;;;4955914;28;20035;-67
2023/02/24 12:37:06;;;;;;;2.92;1.70;;;7.40;95.70;;;;;;4958298;28;20019;-67
2023/02/24 12:40:00;;;;;;;4.55;2.25;;;7.40;95.70;;;;;;4957129;28;20050;-68
2023/02/24 12:42:53;;;;;;;4.85;1.58;;;7.40;95.80;;;;;;4959979;28;20040;-68
2023/02/24 12:45:32;;;;;;;4.90;1.70;;;7.40;95.80;;;;;;4939226;28;20067;-68
2023/02/24 12:48:24;;;;;;;6.00;2.05;;;7.30;95.90;;;;;;4960113;28;20034;-69
2023/02/24 12:51:03;;;;;;;4.22;1.80;;;7.30;95.90;;;;;;4954614;28;20053;-67
2023/02/24 12:54:08;;;;;;;4.35;1.70;;;7.30;95.90;;;;;;4954446;28;20058;-68
2023/02/24 12:56:59;;;;;;;4.28;2.03;;;7.30;96.00;;;;;;4949586;28;20113;-68
2023/02/24 12:59:29;;;;;;;5.03;1.90;;;7.30;96.10;;;;;;4961050;28;20027;-67
2023/02/24 13:02:04;;;;;;;5.47;1.90;;;7.20;96.10;;;;;;4955754;28;20034;-67
2023/02/24 13:04:44;;;;;;;5.78;3.15;;;7.20;96.30;;;;;;4965371;28;20037;-67
2023/02/24 13:07:20;;;;;;;6.38;2.75;;;7.30;96.30;;;;;;4964518;28;20039;-68
2023/02/24 13:10:10;;;;;;;7.07;3.00;;;7.30;96.30;;;;;;4957876;28;20035;-67
2023/02/24 13:12:48;;;;;;;6.53;2.50;;;7.30;96.40;;;;;;4964936;28;20047;-67
2023/02/24 13:15:24;;;;;;;4.32;2.38;;;7.30;96.50;;;;;;4963485;28;20034;-67
2023/02/24 13:17:51;;;;;;;4.78;2.40;;;7.30;96.50;;;;;;4950327;28;20041;-68
2023/02/24 13:20:36;;;;;;;5.05;2.25;;;7.20;96.50;;;;;;4957665;28;20026;-68
2023/02/24 13:23:03;;;;;;;;;;;7.20;96.70;;;;;;4963611;28;20047;-67
2023/02/24 13:25:29;;;;;;;6.30;2.28;;;7.20;96.40;;;;;;4966796;28;19929;-67
2023/02/24 13:27:58;;;;;;;4.10;2.10;;;7.20;96.50;;;;;;4954688;28;20047;-68
2023/02/24 13:30:39;;;;;;;4.95;2.60;;;7.20;96.60;;;;;;4954618;28;20035;-67
2023/02/24 13:33:04;;;;;;;7.45;2.72;;;7.20;96.70;;;;;;4956825;28;20074;-67
2023/02/24 13:35:33;;;;;;;3.67;2.30;;;7.20;96.70;;;;;;4954219;28;20031;-67
2023/02/24 13:38:23;;;;;;;3.67;2.00;;;7.20;96.70;;;;;;4957435;28;20031;-67
2023/02/24 13:40:48;;;;;;;4.40;2.15;;;7.10;96.80;;;;;;4969155;28;20065;-67
2023/02/24 13:43:26;;;;;;;2.95;1.80;;;7.10;96.80;;;;;;4954727;28;20122;-67
2023/02/24 13:45:59;;;;;;;3.80;2.10;;;7.10;96.90;;;;;;4966735;28;20053;-67
2023/02/24 13:48:51;;;;;;;2.95;1.73;;;7.10;97.10;;;;;;4972612;28;20034;-66
2023/02/24 13:51:25;;;;;;;2.80;1.50;;;7.10;97.00;;;;;;4954113;28;20038;-67
2023/02/24 13:54:09;;;;;;;;;;;7.00;96.90;;;;;;4957237;28;20050;-68
2023/02/24 13:56:55;;;;;;;5.07;2.05;;;7.00;96.80;;;;;;4967577;28;19917;-68
2023/02/24 13:59:43;;;;;;;;;;;7.00;96.90;;;;;;4960347;28;20027;-68
2023/02/24 14:02:21;;;;;;;3.97;2.00;;;6.90;96.90;;;;;;4961252;28;20012;-68
2023/02/24 14:04:52;;;;;;;6.75;1.85;;;6.80;97.00;;;;;;4960269;28;20086;-68
2023/02/24 14:07:28;;;;;;;3.65;2.17;;;6.80;97.10;;;;;;4959243;28;20094;-68
2023/02/24 14:09:58;;;;;;;4.00;1.85;;;6.80;97.10;;;;;;4955176;28;20034;-68
2023/02/24 14:12:27;;;;;;;5.53;2.20;;;6.80;97.20;;;;;;4961388;28;20166;-68
2023/02/24 14:14:54;;;;;;;4.53;1.80;;;6.80;97.30;;;;;;4967440;28;20525;-67
2023/02/24 14:17:35;;;;;;;5.68;2.10;;;6.80;97.40;;;;;;4972928;28;20088;-68